Terminal Aerodrome Forecast
Issued by NWS

Home | Current Version | Previous Version | Text Only | Print | Product List | Glossary On
Versions: 1 2 3 4 5 6 7 8 9 10 11 12 13 14 15 16 17 18 19 20 21 22 23 24 25
000
FTUS45 KGJT 311122
TAFDRO
TAF
KDRO 311122Z 3112/0112 04005KT P6SM BKN110
     FM311400 09003KT P6SM SCT100 BKN150
     FM311900 28009G17KT P6SM VCTS SCT090CB BKN120
     FM010100 34010G18KT P6SM VCSH SCT060 OVC100=

USA.gov is the U.S. government's official web portal to all federal, state and local government web resources and services.